createdAt,value
2023-02-01T00:01:51.563Z,8.36
2023-02-01T00:04:19.221Z,8.48
2023-02-01T00:06:46.883Z,9.72
2023-02-01T00:09:17.036Z,9.16
2023-02-01T00:11:44.701Z,9.09
2023-02-01T00:14:12.423Z,8.61
2023-02-01T00:16:40.128Z,9.07
2023-02-01T00:19:09.836Z,9.15
2023-02-01T00:21:37.620Z,8.62
2023-02-01T00:24:05.609Z,9.27
2023-02-01T00:26:33.750Z,8.89
2023-02-01T00:29:01.753Z,9.80
2023-02-01T00:31:29.791Z,8.19
2023-02-01T00:33:57.902Z,9.71
2023-02-01T00:36:27.024Z,8.51
2023-02-01T00:38:54.696Z,9.64
2023-02-01T00:41:23.037Z,9.08
2023-02-01T00:43:50.879Z,8.93
2023-02-01T00:46:19.221Z,9.15
2023-02-01T00:48:47.110Z,8.90
2023-02-01T00:51:15.209Z,8.73
2023-02-01T00:53:44.238Z,7.85
2023-02-01T00:56:12.136Z,9.40
2023-02-01T00:58:39.756Z,8.81
2023-02-01T01:01:08.925Z,8.62
2023-02-01T01:03:37.934Z,8.72
2023-02-01T01:06:06.528Z,8.53
2023-02-01T01:08:34.164Z,8.43
2023-02-01T01:11:07.148Z,8.91
2023-02-01T01:13:34.950Z,9.48
2023-02-01T01:16:05.645Z,8.47
2023-02-01T01:18:34.058Z,8.61
2023-02-01T01:21:01.840Z,9.32
2023-02-01T01:23:29.734Z,9.28
2023-02-01T01:25:57.427Z,9.52
2023-02-01T01:28:26.451Z,8.67
2023-02-01T01:30:54.311Z,9.53
2023-02-01T01:33:22.115Z,8.90
2023-02-01T01:35:49.877Z,8.54
2023-02-01T01:38:17.562Z,8.03
2023-02-01T01:40:46.493Z,9.56
2023-02-01T01:43:15.163Z,10.06
2023-02-01T01:45:44.412Z,9.44
2023-02-01T01:48:14.119Z,9.56
2023-02-01T01:50:43.187Z,9.02
2023-02-01T01:53:11.153Z,9.88
2023-02-01T01:55:39.374Z,9.74
2023-02-01T01:58:07.858Z,8.78
2023-02-01T02:00:35.635Z,9.17
2023-02-01T02:03:05.727Z,9.23
2023-02-01T02:05:33.402Z,9.53
2023-02-01T02:08:01.986Z,9.79
2023-02-01T02:10:49.768Z,9.83
2023-02-01T02:13:17.459Z,8.48
2023-02-01T02:15:45.796Z,9.01
2023-02-01T02:18:15.821Z,9.04
2023-02-01T02:20:54.252Z,9.65
2023-02-01T02:23:27.803Z,9.89
2023-02-01T02:26:05.352Z,9.11
2023-02-01T02:28:48.067Z,9.69
2023-02-01T02:31:34.085Z,9.87
2023-02-01T02:34:08.328Z,9.73
2023-02-01T02:36:39.266Z,10.36
2023-02-01T02:39:09.396Z,8.93
2023-02-01T02:42:08.983Z,10.11
2023-02-01T02:44:55.104Z,9.43
2023-02-01T02:47:28.456Z,8.71
2023-02-01T02:50:21.063Z,9.85
2023-02-01T02:53:11.145Z,10.40
2023-02-01T02:55:39.485Z,9.04
2023-02-01T02:58:24.857Z,8.28
2023-02-01T03:01:10.232Z,9.27
2023-02-01T03:03:56.425Z,8.84
2023-02-01T03:06:25.838Z,9.25
2023-02-01T03:08:57.825Z,8.79
2023-02-01T03:11:45.790Z,9.28
2023-02-01T03:14:12.642Z,10.02
2023-02-01T03:16:43.561Z,9.72
2023-02-01T03:19:11.538Z,9.21
2023-02-01T03:21:42.523Z,10.25
2023-02-01T03:24:11.690Z,9.30
2023-02-01T03:26:40.706Z,9.52
2023-02-01T03:29:10.293Z,9.87
2023-02-01T03:31:38.258Z,9.15
2023-02-01T03:34:06.311Z,10.51
2023-02-01T03:36:36.662Z,9.34
2023-02-01T03:39:06.661Z,11.07
2023-02-01T03:41:37.141Z,10.42
2023-02-01T03:44:06.873Z,11.07
2023-02-01T03:46:35.079Z,9.49
2023-02-01T03:49:04.705Z,10.46
2023-02-01T03:51:32.427Z,9.74
2023-02-01T03:54:00.131Z,11.04
2023-02-01T03:56:29.126Z,10.59
2023-02-01T03:59:02.689Z,10.66
2023-02-01T04:01:35.056Z,10.65
2023-02-01T04:04:02.789Z,10.01
2023-02-01T04:06:30.821Z,10.42
2023-02-01T04:09:03.629Z,10.15
2023-02-01T04:11:32.583Z,9.54
2023-02-01T04:14:05.077Z,10.25
2023-02-01T04:16:33.277Z,10.17
2023-02-01T04:19:01.183Z,9.93
2023-02-01T04:21:30.818Z,10.84
2023-02-01T04:23:58.466Z,11.82
2023-02-01T04:26:26.145Z,11.36
2023-02-01T04:28:55.178Z,11.50
2023-02-01T04:31:26.633Z,10.13
2023-02-01T04:33:54.713Z,12.39
2023-02-01T04:36:23.381Z,11.42
2023-02-01T04:38:51.121Z,10.20
2023-02-01T04:41:19.669Z,11.31
2023-02-01T04:43:47.580Z,11.66
2023-02-01T04:46:16.677Z,11.29
2023-02-01T04:48:44.389Z,10.81
2023-02-01T04:51:12.089Z,11.94
2023-02-01T04:53:39.753Z,12.53
2023-02-01T04:56:07.743Z,11.60
2023-02-01T04:58:35.582Z,11.70
2023-02-01T05:01:05.314Z,11.03
2023-02-01T05:03:34.617Z,11.70
2023-02-01T05:06:02.341Z,12.11
2023-02-01T05:08:30.566Z,11.36
2023-02-01T05:10:59.697Z,11.86
2023-02-01T05:13:44.923Z,11.61
2023-02-01T05:16:12.819Z,11.84
2023-02-01T05:18:41.861Z,11.74
2023-02-01T05:21:09.575Z,11.69
2023-02-01T05:23:57.306Z,12.08
2023-02-01T05:26:25.212Z,11.29
2023-02-01T05:28:53.073Z,11.54
2023-02-01T05:31:20.819Z,13.10
2023-02-01T05:33:49.954Z,11.22
2023-02-01T05:36:17.629Z,10.99
2023-02-01T05:38:45.278Z,11.89
2023-02-01T05:41:12.883Z,11.93
2023-02-01T05:43:40.527Z,11.70
2023-02-01T05:46:16.417Z,11.02
2023-02-01T05:49:10.237Z,12.29
2023-02-01T05:51:37.892Z,12.10
2023-02-01T05:54:05.581Z,12.47
2023-02-01T05:56:33.440Z,13.35
2023-02-01T06:01:28.528Z,11.91
2023-02-01T06:03:56.222Z,10.83
2023-02-01T06:06:25.300Z,11.47
2023-02-01T06:08:53.009Z,10.94
2023-02-01T06:11:31.721Z,11.29
2023-02-01T06:14:00.066Z,12.35
2023-02-01T06:16:27.930Z,10.92
2023-02-01T06:18:55.795Z,10.53
2023-02-01T06:21:25.441Z,11.07
2023-02-01T06:23:53.144Z,11.52
2023-02-01T06:26:20.997Z,10.77
2023-02-01T06:28:48.740Z,11.11
2023-02-01T06:31:16.463Z,10.06
2023-02-01T06:33:44.307Z,12.09
2023-02-01T06:36:12.201Z,11.71
2023-02-01T06:38:41.205Z,12.86
2023-02-01T06:41:08.839Z,11.12
2023-02-01T06:43:36.540Z,10.52
2023-02-01T06:46:04.786Z,11.80
2023-02-01T06:48:32.497Z,10.52
2023-02-01T06:51:00.176Z,11.24
2023-02-01T06:53:27.908Z,10.32
2023-02-01T06:55:57.181Z,10.46
2023-02-01T06:58:24.983Z,11.22
2023-02-01T07:00:54.890Z,11.87
2023-02-01T07:03:22.611Z,10.27
2023-02-01T07:05:50.262Z,11.48
2023-02-01T07:08:17.880Z,10.30
2023-02-01T07:10:45.542Z,11.22
2023-02-01T07:13:14.527Z,11.34
2023-02-01T07:15:42.127Z,12.35
2023-02-01T07:18:09.776Z,11.33
2023-02-01T07:20:37.443Z,10.76
2023-02-01T07:23:05.058Z,11.07
2023-02-01T07:25:32.804Z,10.10
2023-02-01T07:28:00.387Z,9.82
2023-02-01T07:30:29.391Z,10.09
2023-02-01T07:33:00.321Z,10.54
2023-02-01T07:35:28.110Z,10.69
2023-02-01T07:37:55.786Z,11.09
2023-02-01T07:40:29.317Z,11.93
2023-02-01T07:43:00.891Z,10.99
2023-02-01T07:45:30.039Z,11.94
2023-02-01T07:47:57.656Z,11.04
2023-02-01T07:50:25.501Z,10.48
2023-02-01T07:52:54.404Z,10.91
2023-02-01T07:55:23.718Z,9.53
2023-02-01T07:57:51.334Z,10.69
2023-02-01T08:00:37.313Z,10.48
2023-02-01T08:03:06.795Z,10.42
2023-02-01T08:05:34.683Z,9.74
2023-02-01T08:08:02.282Z,10.50
2023-02-01T08:10:29.987Z,10.81
2023-02-01T08:13:00.827Z,10.86
2023-02-01T08:15:28.733Z,11.10
2023-02-01T08:17:56.566Z,9.86
2023-02-01T08:20:26.969Z,10.38
2023-02-01T08:22:54.860Z,8.59
2023-02-01T08:25:22.549Z,8.26
2023-02-01T08:27:50.238Z,8.21
2023-02-01T08:30:18.193Z,8.35
2023-02-01T08:32:45.832Z,9.04
2023-02-01T08:35:13.546Z,9.09
2023-02-01T08:37:42.539Z,8.53
2023-02-01T08:40:10.908Z,8.68
2023-02-01T08:42:55.418Z,9.94
2023-02-01T08:45:24.768Z,8.49
2023-02-01T08:47:52.468Z,9.12
2023-02-01T08:50:20.561Z,10.14
2023-02-01T08:52:49.830Z,9.33
2023-02-01T08:55:17.563Z,9.21
2023-02-01T08:57:45.306Z,8.15
2023-02-01T09:00:14.580Z,9.74
2023-02-01T09:02:42.303Z,8.80
2023-02-01T09:05:10.135Z,8.41
2023-02-01T09:07:37.800Z,7.64
2023-02-01T09:10:07.258Z,8.51
2023-02-01T09:12:35.286Z,8.03
2023-02-01T09:15:03.476Z,8.08
2023-02-01T09:17:31.436Z,7.64
2023-02-01T09:19:59.096Z,10.50
2023-02-01T09:22:26.755Z,7.46
2023-02-01T09:24:55.317Z,7.81
2023-02-01T09:27:24.484Z,8.64
2023-02-01T09:29:53.559Z,7.39
2023-02-01T09:32:21.515Z,9.04
2023-02-01T09:34:49.284Z,8.15
2023-02-01T09:37:16.982Z,7.97
2023-02-01T09:39:44.775Z,8.34
2023-02-01T09:42:33.586Z,7.76
2023-02-01T09:45:04.922Z,8.70
2023-02-01T09:47:32.646Z,7.86
2023-02-01T09:50:01.340Z,8.41
2023-02-01T09:52:30.171Z,8.62
2023-02-01T09:55:01.808Z,8.19
2023-02-01T09:57:33.489Z,8.56
2023-02-01T10:00:03.027Z,8.11
2023-02-01T10:02:40.083Z,9.14
2023-02-01T10:05:08.176Z,8.65
2023-02-01T10:07:36.605Z,8.29
2023-02-01T10:10:05.891Z,8.97
2023-02-01T10:12:42.086Z,9.16
2023-02-01T10:15:14.329Z,8.69
2023-02-01T10:17:46.772Z,9.41
2023-02-01T10:20:15.418Z,8.92
2023-02-01T10:23:08.770Z,9.32
2023-02-01T10:25:33.265Z,7.61
2023-02-01T10:28:02.924Z,7.92
2023-02-01T10:30:34.669Z,8.69
2023-02-01T10:33:03.714Z,9.31
2023-02-01T10:35:32.227Z,9.28
2023-02-01T10:38:00.610Z,8.95
2023-02-01T10:40:28.421Z,8.99
2023-02-01T10:42:56.513Z,9.61
2023-02-01T10:45:26.589Z,9.24
2023-02-01T10:47:54.743Z,9.66
2023-02-01T10:50:26.477Z,9.44
2023-02-01T10:52:55.041Z,9.20
2023-02-01T10:55:30.164Z,8.78
2023-02-01T10:57:58.816Z,9.66
2023-02-01T11:00:28.103Z,9.21
2023-02-01T11:02:55.732Z,9.01
2023-02-01T11:05:24.461Z,8.65
2023-02-01T11:07:53.401Z,8.82
2023-02-01T11:10:36.989Z,9.69
2023-02-01T11:13:04.865Z,8.50
2023-02-01T11:15:33.923Z,10.23
2023-02-01T11:18:14.659Z,11.24
2023-02-01T11:20:42.624Z,10.43
2023-02-01T11:23:13.486Z,10.15
2023-02-01T11:25:41.209Z,11.09
2023-02-01T11:28:09.919Z,12.11
2023-02-01T11:30:41.268Z,11.21
2023-02-01T11:33:09.506Z,12.31
2023-02-01T11:35:37.790Z,11.20
2023-02-01T11:38:11.441Z,10.56
2023-02-01T11:40:39.460Z,11.63
2023-02-01T11:43:09.791Z,11.20
2023-02-01T11:45:39.313Z,10.87
2023-02-01T11:48:10.158Z,11.01
2023-02-01T11:50:41.196Z,9.64
2023-02-01T11:53:22.320Z,11.29
2023-02-01T11:55:53.344Z,11.38
2023-02-01T11:58:25.148Z,11.30
2023-02-01T12:00:59.197Z,11.43
2023-02-01T12:03:41.737Z,9.46
2023-02-01T12:06:10.689Z,10.16
2023-02-01T12:08:43.794Z,11.43
2023-02-01T12:11:28.954Z,12.08
2023-02-01T12:13:57.787Z,12.28
2023-02-01T12:16:29.545Z,13.69
2023-02-01T12:19:12.892Z,12.38
2023-02-01T12:21:45.095Z,12.29
2023-02-01T12:24:22.200Z,12.44
2023-02-01T12:26:52.705Z,10.64
2023-02-01T12:29:23.131Z,11.57
2023-02-01T12:32:01.311Z,12.35
2023-02-01T12:34:33.085Z,10.89
2023-02-01T12:37:02.448Z,11.55
2023-02-01T12:39:32.338Z,10.87
2023-02-01T12:42:01.109Z,10.84
2023-02-01T12:44:30.303Z,10.67
2023-02-01T12:46:59.034Z,12.72
2023-02-01T12:49:30.950Z,13.07
2023-02-01T12:52:00.935Z,13.39
2023-02-01T12:54:30.206Z,12.51
2023-02-01T12:56:58.478Z,12.65
2023-02-01T12:59:27.214Z,12.84
2023-02-01T13:01:57.505Z,13.50
2023-02-01T13:04:27.735Z,13.02
2023-02-01T13:06:59.306Z,11.07
2023-02-01T13:09:27.758Z,11.18
2023-02-01T13:11:55.814Z,11.74
2023-02-01T13:14:25.942Z,11.53
2023-02-01T13:16:54.411Z,11.56
2023-02-01T13:19:22.997Z,11.08
2023-02-01T13:21:52.311Z,11.17
2023-02-01T13:24:27.106Z,10.74
2023-02-01T13:26:55.717Z,10.81
2023-02-01T13:29:23.677Z,10.83
2023-02-01T13:32:07.091Z,10.87
2023-02-01T13:34:50.011Z,10.97
2023-02-01T13:37:24.233Z,11.75
2023-02-01T13:39:56.377Z,11.70
2023-02-01T13:42:24.971Z,11.85
2023-02-01T13:44:52.997Z,11.71
2023-02-01T13:47:27.187Z,12.54
2023-02-01T13:49:55.031Z,11.26
2023-02-01T13:52:27.312Z,12.11
2023-02-01T13:55:04.695Z,10.99
2023-02-01T13:57:37.294Z,10.80
2023-02-01T14:00:10.519Z,11.21
2023-02-01T14:03:05.256Z,12.20
2023-02-01T14:05:51.791Z,11.22
2023-02-01T14:08:24.164Z,11.70
2023-02-01T14:10:53.741Z,13.56
2023-02-01T14:13:25.756Z,12.67
2023-02-01T14:16:11.902Z,12.36
2023-02-01T14:18:52.213Z,11.33
2023-02-01T14:21:24.250Z,13.00
2023-02-01T14:23:57.377Z,11.71
2023-02-01T14:26:27.138Z,12.29
2023-02-01T14:29:02.577Z,12.29
2023-02-01T14:31:37.819Z,11.44
2023-02-01T14:34:07.489Z,12.84
2023-02-01T14:36:45.680Z,11.66
2023-02-01T14:39:33.667Z,11.51
2023-02-01T14:42:04.202Z,11.20
2023-02-01T14:44:32.898Z,11.90
2023-02-01T14:47:33.844Z,11.49
2023-02-01T14:50:28.603Z,12.12
2023-02-01T14:53:13.506Z,12.12
2023-02-01T14:55:42.599Z,12.30
2023-02-01T14:58:17.117Z,11.74
2023-02-01T15:00:48.820Z,11.50
2023-02-01T15:03:21.714Z,12.67
2023-02-01T15:05:53.323Z,13.19
2023-02-01T15:08:21.593Z,13.10
2023-02-01T15:10:50.128Z,10.87
2023-02-01T15:13:23.643Z,9.94
2023-02-01T15:16:04.439Z,10.65
2023-02-01T15:18:32.123Z,9.95
2023-02-01T15:21:09.494Z,10.44
2023-02-01T15:23:49.555Z,10.88
2023-02-01T15:26:26.950Z,11.10
2023-02-01T15:28:55.988Z,9.45
2023-02-01T15:31:33.856Z,10.63
2023-02-01T15:34:01.619Z,10.48
2023-02-01T15:36:29.871Z,11.89
2023-02-01T15:39:19.333Z,11.95
2023-02-01T15:41:48.278Z,13.35
2023-02-01T15:44:19.016Z,10.68
2023-02-01T15:46:47.422Z,11.51
2023-02-01T15:49:19.996Z,11.29
2023-02-01T15:51:48.115Z,11.87
2023-02-01T15:54:20.482Z,9.70
2023-02-01T15:56:53.621Z,10.41
2023-02-01T15:59:22.929Z,9.48
2023-02-01T16:01:51.872Z,9.80
2023-02-01T16:04:21.517Z,8.86
2023-02-01T16:06:50.783Z,7.21
2023-02-01T16:09:18.767Z,6.33
2023-02-01T16:11:51.329Z,7.18
2023-02-01T16:14:18.932Z,6.23
2023-02-01T16:16:47.936Z,7.60
2023-02-01T16:19:15.526Z,7.24
2023-02-01T16:21:43.173Z,6.93
2023-02-01T16:24:10.850Z,6.52
2023-02-01T16:26:39.239Z,5.88
2023-02-01T16:29:07.901Z,6.74
2023-02-01T16:31:36.395Z,6.86
2023-02-01T16:34:06.359Z,6.62
2023-02-01T16:36:34.257Z,7.30
2023-02-01T16:39:03.766Z,7.82
2023-02-01T16:41:31.397Z,8.60
2023-02-01T16:43:58.995Z,7.95
2023-02-01T16:46:28.019Z,7.15
2023-02-01T16:48:56.290Z,10.05
2023-02-01T16:51:25.572Z,8.85
2023-02-01T16:53:55.015Z,8.79
2023-02-01T16:56:23.948Z,7.65
2023-02-01T16:58:51.701Z,7.64
2023-02-01T17:01:20.324Z,6.63
2023-02-01T17:03:48.468Z,8.10
2023-02-01T17:06:17.396Z,8.21
2023-02-01T17:08:46.831Z,8.18
2023-02-01T17:11:14.758Z,8.19
2023-02-01T17:13:43.009Z,7.23
2023-02-01T17:16:14.871Z,8.54
2023-02-01T17:18:42.497Z,8.46
2023-02-01T17:21:10.653Z,8.05
2023-02-01T17:23:38.500Z,8.54
2023-02-01T17:26:10.156Z,7.63
2023-02-01T17:28:37.788Z,7.40
2023-02-01T17:31:05.704Z,7.45
2023-02-01T17:33:35.738Z,8.65
2023-02-01T17:36:04.500Z,7.46
2023-02-01T17:38:32.084Z,8.81
2023-02-01T17:40:59.727Z,8.74
2023-02-01T17:43:28.743Z,9.67
2023-02-01T17:45:56.850Z,7.81
2023-02-01T17:48:24.641Z,7.88
2023-02-01T17:50:58.442Z,7.75
2023-02-01T17:53:26.181Z,7.64
2023-02-01T17:55:53.921Z,9.03
2023-02-01T17:58:22.672Z,8.04
2023-02-01T18:00:51.776Z,9.35
2023-02-01T18:03:22.695Z,7.77
2023-02-01T18:05:51.109Z,7.87
2023-02-01T18:08:21.563Z,7.93
2023-02-01T18:10:49.736Z,7.74
2023-02-01T18:13:17.329Z,8.08
2023-02-01T18:15:45.003Z,8.07
2023-02-01T18:18:13.963Z,8.58
2023-02-01T18:20:43.329Z,7.98
2023-02-01T18:23:15.531Z,7.23
2023-02-01T18:25:45.956Z,7.77
2023-02-01T18:28:13.976Z,8.43
2023-02-01T18:30:41.645Z,7.22
2023-02-01T18:33:10.417Z,10.08
2023-02-01T18:35:39.583Z,8.30
2023-02-01T18:38:07.258Z,7.89
2023-02-01T18:40:35.206Z,7.79
2023-02-01T18:43:02.851Z,8.09
2023-02-01T18:45:31.512Z,8.78
2023-02-01T18:47:59.648Z,9.17
2023-02-01T18:50:28.232Z,8.73
2023-02-01T18:52:58.122Z,8.52
2023-02-01T18:55:26.494Z,9.27
2023-02-01T18:57:54.367Z,8.01
2023-02-01T19:00:22.772Z,8.12
2023-02-01T19:02:50.617Z,8.13
2023-02-01T19:05:18.583Z,8.43
2023-02-01T19:07:46.508Z,8.51
2023-02-01T19:10:16.638Z,8.65
2023-02-01T19:12:44.265Z,8.63
2023-02-01T19:15:15.605Z,9.97
2023-02-01T19:17:43.909Z,9.56
2023-02-01T19:20:12.475Z,9.10
2023-02-01T19:22:40.413Z,8.87
2023-02-01T19:25:08.565Z,9.26
2023-02-01T19:27:37.556Z,9.56
2023-02-01T19:30:05.695Z,9.70
2023-02-01T19:32:33.349Z,8.16
2023-02-01T19:35:01.052Z,9.84
2023-02-01T19:37:28.670Z,8.51
2023-02-01T19:39:56.320Z,8.58
2023-02-01T19:42:23.951Z,9.23
2023-02-01T19:44:52.970Z,9.33
2023-02-01T19:47:20.606Z,8.56
2023-02-01T19:49:48.260Z,8.38
2023-02-01T19:52:15.911Z,8.76
2023-02-01T19:54:43.587Z,8.42
2023-02-01T19:57:11.285Z,9.39
2023-02-01T19:59:38.984Z,8.58
2023-02-01T20:02:07.153Z,9.38
2023-02-01T20:04:34.799Z,8.97
2023-02-01T20:07:03.421Z,8.70
2023-02-01T20:09:31.322Z,8.67
2023-02-01T20:11:58.961Z,8.81
2023-02-01T20:14:27.127Z,9.04
2023-02-01T20:16:54.809Z,8.96
2023-02-01T20:19:23.974Z,9.05
2023-02-01T20:21:51.612Z,9.54
2023-02-01T20:24:19.413Z,9.68
2023-02-01T20:26:49.074Z,8.41
2023-02-01T20:29:17.410Z,8.19
2023-02-01T20:31:45.775Z,9.41
2023-02-01T20:34:14.112Z,10.40
2023-02-01T20:36:43.193Z,8.10
2023-02-01T20:39:10.865Z,8.91
2023-02-01T20:41:38.640Z,9.02
2023-02-01T20:44:06.446Z,8.49
2023-02-01T20:46:34.105Z,7.49
2023-02-01T20:49:01.818Z,8.33
2023-02-01T20:51:29.515Z,8.34
2023-02-01T20:53:58.502Z,8.71
2023-02-01T20:56:26.088Z,9.39
2023-02-01T20:58:53.912Z,7.81
2023-02-01T21:01:21.534Z,9.17
2023-02-01T21:03:49.189Z,8.96
2023-02-01T21:06:16.917Z,8.37
2023-02-01T21:08:44.552Z,8.41
2023-02-01T21:11:14.002Z,8.59
2023-02-01T21:13:43.944Z,8.03
2023-02-01T21:16:12.236Z,9.21
2023-02-01T21:18:40.010Z,8.64
2023-02-01T21:21:07.929Z,8.37
2023-02-01T21:23:44.583Z,8.32
2023-02-01T21:26:13.960Z,8.84
2023-02-01T21:28:41.608Z,9.32
2023-02-01T21:31:09.333Z,8.91
2023-02-01T21:33:39.207Z,8.96
2023-02-01T21:36:07.143Z,8.36
2023-02-01T21:38:34.904Z,8.58
2023-02-01T21:41:20.036Z,8.69
2023-02-01T21:43:49.024Z,8.69
2023-02-01T21:46:18.047Z,9.38
2023-02-01T21:49:05.383Z,10.10
2023-02-01T21:51:35.033Z,9.18
2023-02-01T21:54:02.848Z,9.58
2023-02-01T21:56:30.456Z,9.26
2023-02-01T21:58:59.494Z,8.99
2023-02-01T22:01:27.237Z,8.68
2023-02-01T22:03:55.093Z,8.53
2023-02-01T22:06:23.498Z,10.03
2023-02-01T22:08:51.140Z,9.67
2023-02-01T22:11:18.848Z,7.51
2023-02-01T22:13:46.576Z,9.74
2023-02-01T22:16:18.033Z,9.40
2023-02-01T22:18:45.801Z,8.32
2023-02-01T22:21:13.473Z,9.29
2023-02-01T22:23:41.201Z,8.44
2023-02-01T22:26:09.296Z,8.51
2023-02-01T22:28:37.058Z,8.44
2023-02-01T22:31:05.447Z,7.78
2023-02-01T22:33:34.613Z,7.95
2023-02-01T22:36:02.270Z,8.49
2023-02-01T22:38:31.227Z,7.87
2023-02-01T22:40:59.172Z,8.89
2023-02-01T22:43:26.814Z,9.02
2023-02-01T22:45:54.597Z,8.74
2023-02-01T22:48:22.241Z,8.50
2023-02-01T22:50:51.207Z,9.68
2023-02-01T22:53:19.823Z,9.14
2023-02-01T22:55:47.456Z,8.83
2023-02-01T22:58:15.008Z,8.45
2023-02-01T23:00:42.634Z,8.38
2023-02-01T23:03:10.334Z,8.39
2023-02-01T23:05:37.938Z,9.26
2023-02-01T23:08:06.927Z,7.82
2023-02-01T23:10:34.599Z,8.41
2023-02-01T23:13:02.363Z,8.72
2023-02-01T23:15:30.032Z,8.49
2023-02-01T23:17:57.854Z,8.74
2023-02-01T23:20:25.498Z,8.63
2023-02-01T23:22:53.128Z,8.74
2023-02-01T23:25:25.262Z,8.36
2023-02-01T23:27:53.128Z,8.95
2023-02-01T23:30:20.919Z,8.54
2023-02-01T23:32:48.488Z,8.28
2023-02-01T23:35:16.182Z,8.67
2023-02-01T23:37:43.835Z,8.54
2023-02-01T23:40:12.229Z,8.87
2023-02-01T23:42:41.250Z,8.22
2023-02-01T23:45:09.243Z,8.56
2023-02-01T23:47:36.859Z,9.11
2023-02-01T23:50:04.482Z,8.16
2023-02-01T23:52:32.124Z,8.38
2023-02-01T23:54:59.732Z,7.61
2023-02-01T23:57:27.316Z,8.96
2023-02-01T23:59:56.300Z,8.50
